WetterOnline ( https://www.wetteronline.de )

Wetter aktuell Remptendorf

Aktuelles Wetter: Schleiz (502m)

6-stündlich | Neueste Meldungen
Ortszeit Temperatur Wetter
Do, 19.05. 2:00 16.2° C wolkig
Mi, 18.05. 20:00 21.4° C wolkig
Mi, 18.05. 14:00 22.1° C wolkenlos
Mi, 18.05. 8:00 14.9° C bewölkt
Mi, 18.05. 2:00 12.4° C bedeckt
Di, 17.05. 20:00 17.6° C wolkig
Di, 17.05. 14:00 19.7° C wolkig
Di, 17.05. 8:00 13.8° C bedeckt
Ortszeit Temperatur Wetter
Do, 19.05. 4:30 14.0° C wolkig
Do, 19.05. 4:20 14.0° C wolkig
Do, 19.05. 4:10 14.2° C bedeckt
Do, 19.05. 4:00 14.5° C wolkig
Do, 19.05. 3:50 14.5° C wolkig
Do, 19.05. 3:40 15.0° C bedeckt
Do, 19.05. 3:30 15.2° C wolkig
Do, 19.05. 3:00 15.5° C wolkig
Do, 19.05. 2:30 14.9° C wolkig
Do, 19.05. 2:00 16.2° C wolkig
Do, 19.05. 1:30 16.5° C wolkig
Ortszeit Relative Feuchte Sichtweite
Do, 19.05. 2:00 57% 65 km
Mi, 18.05. 20:00 50% >70 km
Mi, 18.05. 14:00 48% 45 km
Mi, 18.05. 8:00 79% 30 km
Mi, 18.05. 2:00 88% 29 km
Di, 17.05. 20:00 70% 55 km
Di, 17.05. 14:00 60% 60 km
Di, 17.05. 8:00 86% 18 km
Ortszeit Relative Feuchte Sichtweite
Do, 19.05. 4:30 65% 55 km
Do, 19.05. 4:20 65% -
Do, 19.05. 4:10 64% -
Do, 19.05. 4:00 62% 65 km
Do, 19.05. 3:50 62% -
Do, 19.05. 3:40 60% -
Do, 19.05. 3:30 60% 65 km
Do, 19.05. 3:00 59% 65 km
Do, 19.05. 2:30 62% 50 km
Do, 19.05. 2:00 57% 65 km
Do, 19.05. 1:30 56% 55 km
Ortszeit Niederschlagsmenge Niederschlagsart
Do, 19.05. 2:00 0.0 l/m2 in 6 Std. -
Mi, 18.05. 20:00 0.0 l/m2 in 12 Std. -
Mi, 18.05. 14:00 0.0 l/m2 in 6 Std. -
Mi, 18.05. 8:00 0.1 l/m2 in 12 Std. Regen
Mi, 18.05. 2:00 0.0 l/m2 in 6 Std. -
Di, 17.05. 20:00 0.1 l/m2 in 12 Std. Regen
Di, 17.05. 14:00 0.0 l/m2 in 6 Std. -
Di, 17.05. 8:00 0.1 l/m2 in 12 Std. Sprühregen
Ortszeit Niederschlagsmenge Niederschlagsart
Do, 19.05. 4:30 0.0 l/m2 in 1 Std. -
Do, 19.05. 4:20 keine Meldung -
Do, 19.05. 4:10 keine Meldung -
Do, 19.05. 4:00 0.0 l/m2 in 1 Std. -
Do, 19.05. 3:50 keine Meldung -
Do, 19.05. 3:40 keine Meldung -
Do, 19.05. 3:30 0.0 l/m2 in 1 Std. -
Do, 19.05. 3:00 0.0 l/m2 in 1 Std. -
Do, 19.05. 2:30 0.0 l/m2 in 1 Std. -
Do, 19.05. 2:00 0.0 l/m2 in 1 Std. -
Do, 19.05. 1:30 0.0 l/m2 in 1 Std. -
Ortszeit Stärke Spitze Richtung
km/h Bft. km/h Grad Sektor
Do, 19.05. 2:00 18 3 36 160° S
Mi, 18.05. 20:00 7 2 18 170° S
Mi, 18.05. 14:00 7 2 22 140° SO
Mi, 18.05. 8:00 4 1 18 160° S
Mi, 18.05. 2:00 7 2 18 160° S
Di, 17.05. 20:00 9 2 33 80° O
Di, 17.05. 14:00 14 3 32 310° NW
Di, 17.05. 8:00 14 3 40 300° NW
Ortszeit Stärke Spitze Richtung
km/h Bft. km/h Grad Sektor
Do, 19.05. 4:30 13 3 22 170° S
Do, 19.05. 4:20 13 3 - 170° S
Do, 19.05. 4:10 14 3 - 160° S
Do, 19.05. 4:00 19 3 28 160° S
Do, 19.05. 3:50 18 3 - 160° S
Do, 19.05. 3:40 20 4 - 160° S
Do, 19.05. 3:30 18 3 29 160° S
Do, 19.05. 3:00 18 3 29 160° S
Do, 19.05. 2:30 15 3 28 160° S
Do, 19.05. 2:00 18 3 29 160° S
Do, 19.05. 1:30 19 3 30 150° SO
Ortszeit Untergrenze Bedeckung Gattung
total tief tief mittel hoch
Do, 19.05. 2:00 9000 m 8/8 0/8 - - -
Mi, 18.05. 20:00 9000 m 7/8 0/8 - - -
Mi, 18.05. 14:00 - 0/8 0/8 - - -
Mi, 18.05. 8:00 3000 m 7/8 7/8 - - -
Mi, 18.05. 2:00 5400 m 8/8 8/8 - - -
Di, 17.05. 20:00 1500 m 7/8 1/8 - - -
Di, 17.05. 14:00 990 m 8/8 1/8 - - -
Di, 17.05. 8:00 330 m 8/8 8/8 - - -
Ortszeit Bedeckungsgrad in Achtel und Wolkenuntergrenze
Do, 19.05. 4:30 8(10500m)
Do, 19.05. 4:20 8(10500m)
Do, 19.05. 4:10 8
Do, 19.05. 4:00 5(9000m) 8(10500m)
Do, 19.05. 3:50 5(9000m) 8(10500m)
Do, 19.05. 3:40 8
Do, 19.05. 3:30 8(10500m) 8(12000m)
Do, 19.05. 3:00 1(9000m) 8(10500m)
Do, 19.05. 2:30 5(9000m) 7(10500m) 7(10500m)
Do, 19.05. 2:00 7(9000m) 8(10500m) 8(12000m)
Do, 19.05. 1:30 8(9000m) 8(9000m) 8(10500m)
Ortszeit Luftdruck NN (hPa) Tendenz (hPa in 3 Std.)
Do, 19.05. 2:00 1023 - 0,3
Mi, 18.05. 20:00 1022 - 0,1
Mi, 18.05. 14:00 1023 - 0,7
Mi, 18.05. 8:00 1024 + 1,3
Mi, 18.05. 2:00 1023 + 0,3
Di, 17.05. 20:00 1020 + 0,3
Di, 17.05. 14:00 1020 - 0,2
Di, 17.05. 8:00 1021 + 1,3
Ortszeit Luftdruck NN (hPa) Tendenz (hPa in 3 Std.)
Do, 19.05. 4:30 1023 - 0,5
Do, 19.05. 4:20 1023 keine Meldung
Do, 19.05. 4:10 1023 keine Meldung
Do, 19.05. 4:00 1023 - 0,7
Do, 19.05. 3:50 1023 keine Meldung
Do, 19.05. 3:40 1023 keine Meldung
Do, 19.05. 3:30 1023 - 0,7
Do, 19.05. 3:00 1023 - 0,6
Do, 19.05. 2:30 1023 - 0,4
Do, 19.05. 2:00 1023 - 0,3
Do, 19.05. 1:30 1023 - 0,3
Ortszeit Schneehöhe (cm)
Do, 19.05. 2:00 0
Mi, 18.05. 20:00 0
Mi, 18.05. 14:00 0
Mi, 18.05. 8:00 0
Mi, 18.05. 2:00 0
Di, 17.05. 20:00 0
Di, 17.05. 14:00 0
Di, 17.05. 8:00 0
Ortszeit Schneehöhe (cm)
Do, 19.05. 4:30 0
Do, 19.05. 4:20 0
Do, 19.05. 4:10 0
Do, 19.05. 4:00 0
Do, 19.05. 3:50 0
Do, 19.05. 3:40 0
Do, 19.05. 3:30 0
Do, 19.05. 3:00 0
Do, 19.05. 2:30 0
Do, 19.05. 2:00 0
Do, 19.05. 1:30 0
Link zu dieser Seite / Seite empfehlen

Das Wetter in ...